<?xml version="1.0" encoding="UTF-8" standalone="no" ?>
<gpx xmlns="http://www.topografix.com/GPX/1/1" xmlns:xsi="http://www.w3.org/2001/XMLSchema-instance" xsi:schemaLocation="http://www.topografix.com/GPX/1/1 http://www.topografix.com/GPX/1/1/gpx.xsd" version="1.1" creator="VisuGPX - https://www.visugpx.com">
  <metadata>
    <name>À travers les coteaux du Lauragais</name>
  </metadata>
  <trk>
    <name><![CDATA[À travers les coteaux du Lauragais]]></name>
    <trkseg>
      <trkpt lat="43.45403" lon="1.6136">
        <ele>158</ele>
        <time>2018-03-03T13:51:00Z</time>
      </trkpt>
      <trkpt lat="43.45416" lon="1.61333">
        <ele>158</ele>
        <time>2018-03-03T13:51:33Z</time>
      </trkpt>
      <trkpt lat="43.45434" lon="1.61313">
        <ele>158</ele>
        <time>2018-03-03T13:52:15Z</time>
      </trkpt>
      <trkpt lat="43.45449" lon="1.61289">
        <ele>158</ele>
        <time>2018-03-03T13:52:35Z</time>
      </trkpt>
      <trkpt lat="43.4546" lon="1.61261">
        <ele>159</ele>
        <time>2018-03-03T13:52:57Z</time>
      </trkpt>
      <trkpt lat="43.45478" lon="1.61241">
        <ele>160</ele>
        <time>2018-03-03T13:53:19Z</time>
      </trkpt>
      <trkpt lat="43.45501" lon="1.61238">
        <ele>160</ele>
        <time>2018-03-03T13:53:40Z</time>
      </trkpt>
      <trkpt lat="43.45524" lon="1.61243">
        <ele>160</ele>
        <time>2018-03-03T13:53:58Z</time>
      </trkpt>
      <trkpt lat="43.45543" lon="1.61259">
        <ele>161</ele>
        <time>2018-03-03T13:54:38Z</time>
      </trkpt>
      <trkpt lat="43.45561" lon="1.61278">
        <ele>161</ele>
        <time>2018-03-03T13:54:56Z</time>
      </trkpt>
      <trkpt lat="43.45581" lon="1.61295">
        <ele>161</ele>
        <time>2018-03-03T13:55:12Z</time>
      </trkpt>
      <trkpt lat="43.45599" lon="1.61314">
        <ele>161</ele>
        <time>2018-03-03T13:55:28Z</time>
      </trkpt>
      <trkpt lat="43.45618" lon="1.61331">
        <ele>161</ele>
        <time>2018-03-03T13:55:46Z</time>
      </trkpt>
      <trkpt lat="43.45636" lon="1.6135">
        <ele>161</ele>
        <time>2018-03-03T13:56:05Z</time>
      </trkpt>
      <trkpt lat="43.45655" lon="1.61369">
        <ele>162</ele>
        <time>2018-03-03T13:56:22Z</time>
      </trkpt>
      <trkpt lat="43.45675" lon="1.61385">
        <ele>162</ele>
        <time>2018-03-03T13:56:39Z</time>
      </trkpt>
      <trkpt lat="43.45696" lon="1.61373">
        <ele>162</ele>
        <time>2018-03-03T13:57:02Z</time>
      </trkpt>
      <trkpt lat="43.45708" lon="1.61347">
        <ele>162</ele>
        <time>2018-03-03T13:57:18Z</time>
      </trkpt>
      <trkpt lat="43.45721" lon="1.61321">
        <ele>162</ele>
        <time>2018-03-03T13:57:35Z</time>
      </trkpt>
      <trkpt lat="43.45733" lon="1.61294">
        <ele>162</ele>
        <time>2018-03-03T13:57:53Z</time>
      </trkpt>
      <trkpt lat="43.45748" lon="1.61269">
        <ele>162</ele>
        <time>2018-03-03T13:58:09Z</time>
      </trkpt>
      <trkpt lat="43.4576" lon="1.61242">
        <ele>162</ele>
        <time>2018-03-03T13:58:30Z</time>
      </trkpt>
      <trkpt lat="43.45774" lon="1.61216">
        <ele>162</ele>
        <time>2018-03-03T13:58:45Z</time>
      </trkpt>
      <trkpt lat="43.45787" lon="1.6119">
        <ele>161</ele>
        <time>2018-03-03T13:59:03Z</time>
      </trkpt>
      <trkpt lat="43.4581" lon="1.61192">
        <ele>162</ele>
        <time>2018-03-03T13:59:26Z</time>
      </trkpt>
      <trkpt lat="43.45832" lon="1.61203">
        <ele>162</ele>
        <time>2018-03-03T13:59:45Z</time>
      </trkpt>
      <trkpt lat="43.45855" lon="1.61206">
        <ele>163</ele>
        <time>2018-03-03T14:00:05Z</time>
      </trkpt>
      <trkpt lat="43.45878" lon="1.61199">
        <ele>164</ele>
        <time>2018-03-03T14:00:24Z</time>
      </trkpt>
      <trkpt lat="43.459" lon="1.61204">
        <ele>165</ele>
        <time>2018-03-03T14:00:42Z</time>
      </trkpt>
      <trkpt lat="43.45923" lon="1.61209">
        <ele>166</ele>
        <time>2018-03-03T14:01:00Z</time>
      </trkpt>
      <trkpt lat="43.45945" lon="1.61217">
        <ele>168</ele>
        <time>2018-03-03T14:01:17Z</time>
      </trkpt>
      <trkpt lat="43.45967" lon="1.61224">
        <ele>169</ele>
        <time>2018-03-03T14:01:36Z</time>
      </trkpt>
      <trkpt lat="43.4599" lon="1.61228">
        <ele>170</ele>
        <time>2018-03-03T14:01:55Z</time>
      </trkpt>
      <trkpt lat="43.46006" lon="1.61204">
        <ele>170</ele>
        <time>2018-03-03T14:02:15Z</time>
      </trkpt>
      <trkpt lat="43.46019" lon="1.61177">
        <ele>171</ele>
        <time>2018-03-03T14:02:35Z</time>
      </trkpt>
      <trkpt lat="43.46041" lon="1.61172">
        <ele>173</ele>
        <time>2018-03-03T14:02:54Z</time>
      </trkpt>
      <trkpt lat="43.46064" lon="1.61175">
        <ele>176</ele>
        <time>2018-03-03T14:03:14Z</time>
      </trkpt>
      <trkpt lat="43.46088" lon="1.6118">
        <ele>180</ele>
        <time>2018-03-03T14:03:38Z</time>
      </trkpt>
      <trkpt lat="43.4611" lon="1.61171">
        <ele>186</ele>
        <time>2018-03-03T14:04:01Z</time>
      </trkpt>
      <trkpt lat="43.46132" lon="1.6116">
        <ele>189</ele>
        <time>2018-03-03T14:04:24Z</time>
      </trkpt>
      <trkpt lat="43.46155" lon="1.61156">
        <ele>193</ele>
        <time>2018-03-03T14:04:42Z</time>
      </trkpt>
      <trkpt lat="43.4618" lon="1.61153">
        <ele>196</ele>
        <time>2018-03-03T14:05:03Z</time>
      </trkpt>
      <trkpt lat="43.46203" lon="1.61152">
        <ele>199</ele>
        <time>2018-03-03T14:05:22Z</time>
      </trkpt>
      <trkpt lat="43.46226" lon="1.61154">
        <ele>202</ele>
        <time>2018-03-03T14:06:11Z</time>
      </trkpt>
      <trkpt lat="43.46248" lon="1.61161">
        <ele>204</ele>
        <time>2018-03-03T14:06:28Z</time>
      </trkpt>
      <trkpt lat="43.46271" lon="1.61167">
        <ele>206</ele>
        <time>2018-03-03T14:06:49Z</time>
      </trkpt>
      <trkpt lat="43.46294" lon="1.61176">
        <ele>205</ele>
        <time>2018-03-03T14:07:08Z</time>
      </trkpt>
      <trkpt lat="43.46316" lon="1.61184">
        <ele>202</ele>
        <time>2018-03-03T14:07:28Z</time>
      </trkpt>
      <trkpt lat="43.46338" lon="1.61193">
        <ele>200</ele>
        <time>2018-03-03T14:07:44Z</time>
      </trkpt>
      <trkpt lat="43.46359" lon="1.61203">
        <ele>197</ele>
        <time>2018-03-03T14:08:03Z</time>
      </trkpt>
      <trkpt lat="43.46383" lon="1.61209">
        <ele>195</ele>
        <time>2018-03-03T14:08:22Z</time>
      </trkpt>
      <trkpt lat="43.46405" lon="1.61218">
        <ele>193</ele>
        <time>2018-03-03T14:08:40Z</time>
      </trkpt>
      <trkpt lat="43.46426" lon="1.61227">
        <ele>192</ele>
        <time>2018-03-03T14:08:56Z</time>
      </trkpt>
      <trkpt lat="43.46449" lon="1.61233">
        <ele>190</ele>
        <time>2018-03-03T14:09:13Z</time>
      </trkpt>
      <trkpt lat="43.46471" lon="1.61241">
        <ele>189</ele>
        <time>2018-03-03T14:09:30Z</time>
      </trkpt>
      <trkpt lat="43.46493" lon="1.61252">
        <ele>188</ele>
        <time>2018-03-03T14:09:48Z</time>
      </trkpt>
      <trkpt lat="43.46515" lon="1.61262">
        <ele>188</ele>
        <time>2018-03-03T14:10:05Z</time>
      </trkpt>
      <trkpt lat="43.46537" lon="1.61273">
        <ele>188</ele>
        <time>2018-03-03T14:10:24Z</time>
      </trkpt>
      <trkpt lat="43.46559" lon="1.61284">
        <ele>188</ele>
        <time>2018-03-03T14:10:40Z</time>
      </trkpt>
      <trkpt lat="43.46582" lon="1.61293">
        <ele>188</ele>
        <time>2018-03-03T14:10:57Z</time>
      </trkpt>
      <trkpt lat="43.46604" lon="1.61303">
        <ele>187</ele>
        <time>2018-03-03T14:12:19Z</time>
      </trkpt>
      <trkpt lat="43.46626" lon="1.61307">
        <ele>188</ele>
        <time>2018-03-03T14:12:38Z</time>
      </trkpt>
      <trkpt lat="43.46649" lon="1.61312">
        <ele>189</ele>
        <time>2018-03-03T14:12:56Z</time>
      </trkpt>
      <trkpt lat="43.46672" lon="1.61313">
        <ele>189</ele>
        <time>2018-03-03T14:13:17Z</time>
      </trkpt>
      <trkpt lat="43.46694" lon="1.6132">
        <ele>190</ele>
        <time>2018-03-03T14:13:36Z</time>
      </trkpt>
      <trkpt lat="43.46717" lon="1.61323">
        <ele>190</ele>
        <time>2018-03-03T14:14:08Z</time>
      </trkpt>
      <trkpt lat="43.46736" lon="1.61303">
        <ele>189</ele>
        <time>2018-03-03T14:14:29Z</time>
      </trkpt>
      <trkpt lat="43.46759" lon="1.613">
        <ele>189</ele>
        <time>2018-03-03T14:14:46Z</time>
      </trkpt>
      <trkpt lat="43.46781" lon="1.61306">
        <ele>189</ele>
        <time>2018-03-03T14:15:03Z</time>
      </trkpt>
      <trkpt lat="43.46804" lon="1.6131">
        <ele>188</ele>
        <time>2018-03-03T14:15:20Z</time>
      </trkpt>
      <trkpt lat="43.46827" lon="1.61313">
        <ele>188</ele>
        <time>2018-03-03T14:15:37Z</time>
      </trkpt>
      <trkpt lat="43.4685" lon="1.61317">
        <ele>187</ele>
        <time>2018-03-03T14:15:53Z</time>
      </trkpt>
      <trkpt lat="43.46873" lon="1.61322">
        <ele>187</ele>
        <time>2018-03-03T14:16:11Z</time>
      </trkpt>
      <trkpt lat="43.46896" lon="1.61325">
        <ele>186</ele>
        <time>2018-03-03T14:16:30Z</time>
      </trkpt>
      <trkpt lat="43.46919" lon="1.61324">
        <ele>185</ele>
        <time>2018-03-03T14:16:47Z</time>
      </trkpt>
      <trkpt lat="43.46943" lon="1.61326">
        <ele>185</ele>
        <time>2018-03-03T14:17:02Z</time>
      </trkpt>
      <trkpt lat="43.46966" lon="1.61327">
        <ele>184</ele>
        <time>2018-03-03T14:17:18Z</time>
      </trkpt>
      <trkpt lat="43.46989" lon="1.61324">
        <ele>183</ele>
        <time>2018-03-03T14:17:34Z</time>
      </trkpt>
      <trkpt lat="43.47013" lon="1.61322">
        <ele>182</ele>
        <time>2018-03-03T14:17:50Z</time>
      </trkpt>
      <trkpt lat="43.47034" lon="1.61311">
        <ele>181</ele>
        <time>2018-03-03T14:18:08Z</time>
      </trkpt>
      <trkpt lat="43.47056" lon="1.61299">
        <ele>180</ele>
        <time>2018-03-03T14:18:26Z</time>
      </trkpt>
      <trkpt lat="43.47078" lon="1.61289">
        <ele>179</ele>
        <time>2018-03-03T14:18:44Z</time>
      </trkpt>
      <trkpt lat="43.47099" lon="1.61279">
        <ele>178</ele>
        <time>2018-03-03T14:19:00Z</time>
      </trkpt>
      <trkpt lat="43.47121" lon="1.61269">
        <ele>176</ele>
        <time>2018-03-03T14:19:16Z</time>
      </trkpt>
      <trkpt lat="43.47142" lon="1.61255">
        <ele>174</ele>
        <time>2018-03-03T14:19:33Z</time>
      </trkpt>
      <trkpt lat="43.47164" lon="1.61244">
        <ele>173</ele>
        <time>2018-03-03T14:20:03Z</time>
      </trkpt>
      <trkpt lat="43.47185" lon="1.6123">
        <ele>174</ele>
        <time>2018-03-03T14:20:19Z</time>
      </trkpt>
      <trkpt lat="43.47206" lon="1.61215">
        <ele>175</ele>
        <time>2018-03-03T14:20:52Z</time>
      </trkpt>
      <trkpt lat="43.47224" lon="1.61196">
        <ele>178</ele>
        <time>2018-03-03T14:21:11Z</time>
      </trkpt>
      <trkpt lat="43.47242" lon="1.61177">
        <ele>180</ele>
        <time>2018-03-03T14:21:30Z</time>
      </trkpt>
      <trkpt lat="43.47259" lon="1.61156">
        <ele>182</ele>
        <time>2018-03-03T14:21:48Z</time>
      </trkpt>
      <trkpt lat="43.47276" lon="1.61135">
        <ele>184</ele>
        <time>2018-03-03T14:22:07Z</time>
      </trkpt>
      <trkpt lat="43.47293" lon="1.61113">
        <ele>187</ele>
        <time>2018-03-03T14:22:23Z</time>
      </trkpt>
      <trkpt lat="43.47306" lon="1.61086">
        <ele>188</ele>
        <time>2018-03-03T14:22:39Z</time>
      </trkpt>
      <trkpt lat="43.47314" lon="1.61057">
        <ele>190</ele>
        <time>2018-03-03T14:22:59Z</time>
      </trkpt>
      <trkpt lat="43.47318" lon="1.61026">
        <ele>191</ele>
        <time>2018-03-03T14:23:20Z</time>
      </trkpt>
      <trkpt lat="43.47321" lon="1.60994">
        <ele>192</ele>
        <time>2018-03-03T14:23:35Z</time>
      </trkpt>
      <trkpt lat="43.47324" lon="1.60962">
        <ele>193</ele>
        <time>2018-03-03T14:23:53Z</time>
      </trkpt>
      <trkpt lat="43.47329" lon="1.60931">
        <ele>195</ele>
        <time>2018-03-03T14:24:12Z</time>
      </trkpt>
      <trkpt lat="43.47332" lon="1.609">
        <ele>196</ele>
        <time>2018-03-03T14:24:30Z</time>
      </trkpt>
      <trkpt lat="43.47335" lon="1.60867">
        <ele>196</ele>
        <time>2018-03-03T14:24:48Z</time>
      </trkpt>
      <trkpt lat="43.47339" lon="1.60836">
        <ele>197</ele>
        <time>2018-03-03T14:25:05Z</time>
      </trkpt>
      <trkpt lat="43.47346" lon="1.60805">
        <ele>198</ele>
        <time>2018-03-03T14:25:21Z</time>
      </trkpt>
      <trkpt lat="43.47355" lon="1.60777">
        <ele>198</ele>
        <time>2018-03-03T14:25:38Z</time>
      </trkpt>
      <trkpt lat="43.47368" lon="1.60752">
        <ele>200</ele>
        <time>2018-03-03T14:25:56Z</time>
      </trkpt>
      <trkpt lat="43.47389" lon="1.60737">
        <ele>201</ele>
        <time>2018-03-03T14:26:15Z</time>
      </trkpt>
      <trkpt lat="43.47412" lon="1.60735">
        <ele>202</ele>
        <time>2018-03-03T14:26:38Z</time>
      </trkpt>
      <trkpt lat="43.47434" lon="1.60745">
        <ele>203</ele>
        <time>2018-03-03T14:26:58Z</time>
      </trkpt>
      <trkpt lat="43.47452" lon="1.60727">
        <ele>203</ele>
        <time>2018-03-03T14:27:41Z</time>
      </trkpt>
      <trkpt lat="43.47446" lon="1.60695">
        <ele>203</ele>
        <time>2018-03-03T14:27:58Z</time>
      </trkpt>
      <trkpt lat="43.47443" lon="1.60664">
        <ele>202</ele>
        <time>2018-03-03T14:28:17Z</time>
      </trkpt>
      <trkpt lat="43.47439" lon="1.60633">
        <ele>201</ele>
        <time>2018-03-03T14:28:32Z</time>
      </trkpt>
      <trkpt lat="43.47437" lon="1.60601">
        <ele>200</ele>
        <time>2018-03-03T14:28:49Z</time>
      </trkpt>
      <trkpt lat="43.47434" lon="1.60568">
        <ele>199</ele>
        <time>2018-03-03T14:29:07Z</time>
      </trkpt>
      <trkpt lat="43.4743" lon="1.60536">
        <ele>199</ele>
        <time>2018-03-03T14:29:23Z</time>
      </trkpt>
      <trkpt lat="43.47426" lon="1.60505">
        <ele>198</ele>
        <time>2018-03-03T14:29:43Z</time>
      </trkpt>
      <trkpt lat="43.47419" lon="1.60474">
        <ele>198</ele>
        <time>2018-03-03T14:30:02Z</time>
      </trkpt>
      <trkpt lat="43.47414" lon="1.60443">
        <ele>197</ele>
        <time>2018-03-03T14:30:18Z</time>
      </trkpt>
      <trkpt lat="43.47418" lon="1.60412">
        <ele>197</ele>
        <time>2018-03-03T14:30:34Z</time>
      </trkpt>
      <trkpt lat="43.47425" lon="1.60382">
        <ele>197</ele>
        <time>2018-03-03T14:30:52Z</time>
      </trkpt>
      <trkpt lat="43.47432" lon="1.60351">
        <ele>198</ele>
        <time>2018-03-03T14:31:09Z</time>
      </trkpt>
      <trkpt lat="43.4744" lon="1.60321">
        <ele>197</ele>
        <time>2018-03-03T14:31:26Z</time>
      </trkpt>
      <trkpt lat="43.47447" lon="1.6029">
        <ele>197</ele>
        <time>2018-03-03T14:31:44Z</time>
      </trkpt>
      <trkpt lat="43.47453" lon="1.6026">
        <ele>197</ele>
        <time>2018-03-03T14:32:02Z</time>
      </trkpt>
      <trkpt lat="43.47458" lon="1.60229">
        <ele>197</ele>
        <time>2018-03-03T14:32:19Z</time>
      </trkpt>
      <trkpt lat="43.47463" lon="1.60198">
        <ele>197</ele>
        <time>2018-03-03T14:32:39Z</time>
      </trkpt>
      <trkpt lat="43.47467" lon="1.60166">
        <ele>197</ele>
        <time>2018-03-03T14:32:58Z</time>
      </trkpt>
      <trkpt lat="43.4747" lon="1.60135">
        <ele>197</ele>
        <time>2018-03-03T14:33:14Z</time>
      </trkpt>
      <trkpt lat="43.47475" lon="1.60104">
        <ele>197</ele>
        <time>2018-03-03T14:33:30Z</time>
      </trkpt>
      <trkpt lat="43.47478" lon="1.60072">
        <ele>197</ele>
        <time>2018-03-03T14:33:47Z</time>
      </trkpt>
      <trkpt lat="43.47482" lon="1.6004">
        <ele>197</ele>
        <time>2018-03-03T14:34:05Z</time>
      </trkpt>
      <trkpt lat="43.47484" lon="1.6001">
        <ele>196</ele>
        <time>2018-03-03T14:34:22Z</time>
      </trkpt>
      <trkpt lat="43.47488" lon="1.59977">
        <ele>196</ele>
        <time>2018-03-03T14:34:42Z</time>
      </trkpt>
      <trkpt lat="43.47488" lon="1.59946">
        <ele>196</ele>
        <time>2018-03-03T14:34:59Z</time>
      </trkpt>
      <trkpt lat="43.47485" lon="1.59915">
        <ele>195</ele>
        <time>2018-03-03T14:35:16Z</time>
      </trkpt>
      <trkpt lat="43.47508" lon="1.59909">
        <ele>196</ele>
        <time>2018-03-03T14:36:32Z</time>
      </trkpt>
      <trkpt lat="43.47531" lon="1.59918">
        <ele>197</ele>
        <time>2018-03-03T14:36:47Z</time>
      </trkpt>
      <trkpt lat="43.47552" lon="1.59927">
        <ele>196</ele>
        <time>2018-03-03T14:37:04Z</time>
      </trkpt>
      <trkpt lat="43.47575" lon="1.59935">
        <ele>196</ele>
        <time>2018-03-03T14:37:23Z</time>
      </trkpt>
      <trkpt lat="43.47598" lon="1.59942">
        <ele>195</ele>
        <time>2018-03-03T14:37:39Z</time>
      </trkpt>
      <trkpt lat="43.47619" lon="1.59955">
        <ele>195</ele>
        <time>2018-03-03T14:37:58Z</time>
      </trkpt>
      <trkpt lat="43.47639" lon="1.59968">
        <ele>194</ele>
        <time>2018-03-03T14:38:15Z</time>
      </trkpt>
      <trkpt lat="43.47656" lon="1.5999">
        <ele>193</ele>
        <time>2018-03-03T14:38:32Z</time>
      </trkpt>
      <trkpt lat="43.47675" lon="1.6001">
        <ele>192</ele>
        <time>2018-03-03T14:38:51Z</time>
      </trkpt>
      <trkpt lat="43.47693" lon="1.60029">
        <ele>191</ele>
        <time>2018-03-03T14:39:07Z</time>
      </trkpt>
      <trkpt lat="43.4771" lon="1.6005">
        <ele>190</ele>
        <time>2018-03-03T14:39:24Z</time>
      </trkpt>
      <trkpt lat="43.47729" lon="1.60065">
        <ele>190</ele>
        <time>2018-03-03T14:39:41Z</time>
      </trkpt>
      <trkpt lat="43.47746" lon="1.60087">
        <ele>189</ele>
        <time>2018-03-03T14:39:59Z</time>
      </trkpt>
      <trkpt lat="43.47766" lon="1.60102">
        <ele>190</ele>
        <time>2018-03-03T14:40:17Z</time>
      </trkpt>
      <trkpt lat="43.47786" lon="1.60116">
        <ele>190</ele>
        <time>2018-03-03T14:40:34Z</time>
      </trkpt>
      <trkpt lat="43.47806" lon="1.60131">
        <ele>191</ele>
        <time>2018-03-03T14:40:51Z</time>
      </trkpt>
      <trkpt lat="43.47827" lon="1.60145">
        <ele>192</ele>
        <time>2018-03-03T14:41:06Z</time>
      </trkpt>
      <trkpt lat="43.47846" lon="1.60165">
        <ele>194</ele>
        <time>2018-03-03T14:41:25Z</time>
      </trkpt>
      <trkpt lat="43.47866" lon="1.60183">
        <ele>195</ele>
        <time>2018-03-03T14:41:43Z</time>
      </trkpt>
      <trkpt lat="43.47883" lon="1.60203">
        <ele>195</ele>
        <time>2018-03-03T14:42:00Z</time>
      </trkpt>
      <trkpt lat="43.47902" lon="1.60221">
        <ele>195</ele>
        <time>2018-03-03T14:42:19Z</time>
      </trkpt>
      <trkpt lat="43.4792" lon="1.60239">
        <ele>194</ele>
        <time>2018-03-03T14:42:34Z</time>
      </trkpt>
      <trkpt lat="43.4794" lon="1.60255">
        <ele>192</ele>
        <time>2018-03-03T14:42:51Z</time>
      </trkpt>
      <trkpt lat="43.4796" lon="1.6027">
        <ele>191</ele>
        <time>2018-03-03T14:43:07Z</time>
      </trkpt>
      <trkpt lat="43.47979" lon="1.60287">
        <ele>190</ele>
        <time>2018-03-03T14:43:24Z</time>
      </trkpt>
      <trkpt lat="43.47999" lon="1.60303">
        <ele>189</ele>
        <time>2018-03-03T14:43:44Z</time>
      </trkpt>
      <trkpt lat="43.4802" lon="1.60316">
        <ele>188</ele>
        <time>2018-03-03T14:44:01Z</time>
      </trkpt>
      <trkpt lat="43.4804" lon="1.60331">
        <ele>186</ele>
        <time>2018-03-03T14:44:15Z</time>
      </trkpt>
      <trkpt lat="43.48061" lon="1.60344">
        <ele>185</ele>
        <time>2018-03-03T14:44:32Z</time>
      </trkpt>
      <trkpt lat="43.48082" lon="1.60356">
        <ele>184</ele>
        <time>2018-03-03T14:44:48Z</time>
      </trkpt>
      <trkpt lat="43.48102" lon="1.60371">
        <ele>184</ele>
        <time>2018-03-03T14:45:06Z</time>
      </trkpt>
      <trkpt lat="43.48122" lon="1.60385">
        <ele>184</ele>
        <time>2018-03-03T14:45:21Z</time>
      </trkpt>
      <trkpt lat="43.48142" lon="1.60402">
        <ele>184</ele>
        <time>2018-03-03T14:45:38Z</time>
      </trkpt>
      <trkpt lat="43.48162" lon="1.6042">
        <ele>185</ele>
        <time>2018-03-03T14:45:54Z</time>
      </trkpt>
      <trkpt lat="43.48179" lon="1.60442">
        <ele>187</ele>
        <time>2018-03-03T14:46:10Z</time>
      </trkpt>
      <trkpt lat="43.48195" lon="1.60463">
        <ele>189</ele>
        <time>2018-03-03T14:46:28Z</time>
      </trkpt>
      <trkpt lat="43.48214" lon="1.60482">
        <ele>190</ele>
        <time>2018-03-03T14:46:43Z</time>
      </trkpt>
      <trkpt lat="43.4823" lon="1.60504">
        <ele>191</ele>
        <time>2018-03-03T14:47:00Z</time>
      </trkpt>
      <trkpt lat="43.48248" lon="1.60525">
        <ele>192</ele>
        <time>2018-03-03T14:47:16Z</time>
      </trkpt>
      <trkpt lat="43.48267" lon="1.60544">
        <ele>192</ele>
        <time>2018-03-03T14:47:32Z</time>
      </trkpt>
      <trkpt lat="43.48284" lon="1.60564">
        <ele>192</ele>
        <time>2018-03-03T14:47:50Z</time>
      </trkpt>
      <trkpt lat="43.48303" lon="1.60585">
        <ele>192</ele>
        <time>2018-03-03T14:48:06Z</time>
      </trkpt>
      <trkpt lat="43.48322" lon="1.60602">
        <ele>192</ele>
        <time>2018-03-03T14:48:20Z</time>
      </trkpt>
      <trkpt lat="43.4834" lon="1.60621">
        <ele>192</ele>
        <time>2018-03-03T14:48:37Z</time>
      </trkpt>
      <trkpt lat="43.48358" lon="1.60641">
        <ele>191</ele>
        <time>2018-03-03T14:48:51Z</time>
      </trkpt>
      <trkpt lat="43.48377" lon="1.60659">
        <ele>191</ele>
        <time>2018-03-03T14:49:07Z</time>
      </trkpt>
      <trkpt lat="43.48395" lon="1.60679">
        <ele>191</ele>
        <time>2018-03-03T14:49:25Z</time>
      </trkpt>
      <trkpt lat="43.48414" lon="1.607">
        <ele>191</ele>
        <time>2018-03-03T14:49:44Z</time>
      </trkpt>
      <trkpt lat="43.48433" lon="1.60718">
        <ele>191</ele>
        <time>2018-03-03T14:50:03Z</time>
      </trkpt>
      <trkpt lat="43.48453" lon="1.60734">
        <ele>190</ele>
        <time>2018-03-03T14:50:17Z</time>
      </trkpt>
      <trkpt lat="43.48472" lon="1.60751">
        <ele>189</ele>
        <time>2018-03-03T14:50:33Z</time>
      </trkpt>
      <trkpt lat="43.48494" lon="1.60763">
        <ele>189</ele>
        <time>2018-03-03T14:50:52Z</time>
      </trkpt>
      <trkpt lat="43.48516" lon="1.60777">
        <ele>188</ele>
        <time>2018-03-03T14:51:07Z</time>
      </trkpt>
      <trkpt lat="43.48536" lon="1.60791">
        <ele>188</ele>
        <time>2018-03-03T14:51:20Z</time>
      </trkpt>
      <trkpt lat="43.48556" lon="1.60805">
        <ele>187</ele>
        <time>2018-03-03T14:51:35Z</time>
      </trkpt>
      <trkpt lat="43.48578" lon="1.60817">
        <ele>186</ele>
        <time>2018-03-03T14:51:53Z</time>
      </trkpt>
      <trkpt lat="43.48599" lon="1.60831">
        <ele>185</ele>
        <time>2018-03-03T14:52:08Z</time>
      </trkpt>
      <trkpt lat="43.48619" lon="1.60849">
        <ele>185</ele>
        <time>2018-03-03T14:52:24Z</time>
      </trkpt>
      <trkpt lat="43.4864" lon="1.60863">
        <ele>184</ele>
        <time>2018-03-03T14:52:48Z</time>
      </trkpt>
      <trkpt lat="43.48661" lon="1.60878">
        <ele>183</ele>
        <time>2018-03-03T14:53:02Z</time>
      </trkpt>
      <trkpt lat="43.48681" lon="1.60894">
        <ele>182</ele>
        <time>2018-03-03T14:53:20Z</time>
      </trkpt>
      <trkpt lat="43.48701" lon="1.6091">
        <ele>180</ele>
        <time>2018-03-03T14:53:36Z</time>
      </trkpt>
      <trkpt lat="43.48722" lon="1.60925">
        <ele>179</ele>
        <time>2018-03-03T14:53:52Z</time>
      </trkpt>
      <trkpt lat="43.48736" lon="1.6095">
        <ele>178</ele>
        <time>2018-03-03T14:54:08Z</time>
      </trkpt>
      <trkpt lat="43.48752" lon="1.60974">
        <ele>178</ele>
        <time>2018-03-03T14:54:26Z</time>
      </trkpt>
      <trkpt lat="43.48753" lon="1.61006">
        <ele>178</ele>
        <time>2018-03-03T14:55:15Z</time>
      </trkpt>
      <trkpt lat="43.48752" lon="1.61038">
        <ele>178</ele>
        <time>2018-03-03T14:56:14Z</time>
      </trkpt>
      <trkpt lat="43.4875" lon="1.6107">
        <ele>179</ele>
        <time>2018-03-03T14:56:37Z</time>
      </trkpt>
      <trkpt lat="43.48754" lon="1.61102">
        <ele>179</ele>
        <time>2018-03-03T14:56:59Z</time>
      </trkpt>
      <trkpt lat="43.48752" lon="1.61133">
        <ele>179</ele>
        <time>2018-03-03T14:57:37Z</time>
      </trkpt>
      <trkpt lat="43.48753" lon="1.61165">
        <ele>179</ele>
        <time>2018-03-03T14:57:55Z</time>
      </trkpt>
      <trkpt lat="43.48752" lon="1.61197">
        <ele>179</ele>
        <time>2018-03-03T14:58:16Z</time>
      </trkpt>
      <trkpt lat="43.48747" lon="1.61227">
        <ele>179</ele>
        <time>2018-03-03T14:58:35Z</time>
      </trkpt>
      <trkpt lat="43.48748" lon="1.61259">
        <ele>179</ele>
        <time>2018-03-03T14:59:19Z</time>
      </trkpt>
      <trkpt lat="43.48746" lon="1.61292">
        <ele>180</ele>
        <time>2018-03-03T14:59:38Z</time>
      </trkpt>
      <trkpt lat="43.4874" lon="1.61322">
        <ele>181</ele>
        <time>2018-03-03T14:59:57Z</time>
      </trkpt>
      <trkpt lat="43.48727" lon="1.6135">
        <ele>182</ele>
        <time>2018-03-03T15:00:20Z</time>
      </trkpt>
      <trkpt lat="43.48716" lon="1.61379">
        <ele>183</ele>
        <time>2018-03-03T15:00:38Z</time>
      </trkpt>
      <trkpt lat="43.48708" lon="1.61409">
        <ele>184</ele>
        <time>2018-03-03T15:00:56Z</time>
      </trkpt>
      <trkpt lat="43.48702" lon="1.61438">
        <ele>184</ele>
        <time>2018-03-03T15:01:18Z</time>
      </trkpt>
      <trkpt lat="43.48696" lon="1.61469">
        <ele>184</ele>
        <time>2018-03-03T15:01:38Z</time>
      </trkpt>
      <trkpt lat="43.48684" lon="1.61494">
        <ele>186</ele>
        <time>2018-03-03T15:01:58Z</time>
      </trkpt>
      <trkpt lat="43.4867" lon="1.6152">
        <ele>187</ele>
        <time>2018-03-03T15:02:39Z</time>
      </trkpt>
      <trkpt lat="43.48659" lon="1.61548">
        <ele>189</ele>
        <time>2018-03-03T15:03:01Z</time>
      </trkpt>
      <trkpt lat="43.48648" lon="1.61577">
        <ele>191</ele>
        <time>2018-03-03T15:03:21Z</time>
      </trkpt>
      <trkpt lat="43.48637" lon="1.61606">
        <ele>193</ele>
        <time>2018-03-03T15:03:42Z</time>
      </trkpt>
      <trkpt lat="43.48622" lon="1.61631">
        <ele>196</ele>
        <time>2018-03-03T15:04:04Z</time>
      </trkpt>
      <trkpt lat="43.48609" lon="1.61658">
        <ele>198</ele>
        <time>2018-03-03T15:04:24Z</time>
      </trkpt>
      <trkpt lat="43.48599" lon="1.61687">
        <ele>200</ele>
        <time>2018-03-03T15:04:43Z</time>
      </trkpt>
      <trkpt lat="43.48591" lon="1.61717">
        <ele>201</ele>
        <time>2018-03-03T15:05:07Z</time>
      </trkpt>
      <trkpt lat="43.48581" lon="1.61745">
        <ele>203</ele>
        <time>2018-03-03T15:05:42Z</time>
      </trkpt>
      <trkpt lat="43.48571" lon="1.61774">
        <ele>204</ele>
        <time>2018-03-03T15:06:07Z</time>
      </trkpt>
      <trkpt lat="43.4856" lon="1.61802">
        <ele>205</ele>
        <time>2018-03-03T15:06:25Z</time>
      </trkpt>
      <trkpt lat="43.48551" lon="1.61832">
        <ele>205</ele>
        <time>2018-03-03T15:06:44Z</time>
      </trkpt>
      <trkpt lat="43.48538" lon="1.61858">
        <ele>206</ele>
        <time>2018-03-03T15:07:00Z</time>
      </trkpt>
      <trkpt lat="43.48525" lon="1.61884">
        <ele>207</ele>
        <time>2018-03-03T15:07:20Z</time>
      </trkpt>
      <trkpt lat="43.4851" lon="1.61909">
        <ele>209</ele>
        <time>2018-03-03T15:07:41Z</time>
      </trkpt>
      <trkpt lat="43.48497" lon="1.61935">
        <ele>209</ele>
        <time>2018-03-03T15:08:02Z</time>
      </trkpt>
      <trkpt lat="43.48485" lon="1.61963">
        <ele>209</ele>
        <time>2018-03-03T15:08:20Z</time>
      </trkpt>
      <trkpt lat="43.4847" lon="1.61988">
        <ele>210</ele>
        <time>2018-03-03T15:08:36Z</time>
      </trkpt>
      <trkpt lat="43.48452" lon="1.62008">
        <ele>210</ele>
        <time>2018-03-03T15:08:53Z</time>
      </trkpt>
      <trkpt lat="43.48434" lon="1.62029">
        <ele>210</ele>
        <time>2018-03-03T15:09:10Z</time>
      </trkpt>
      <trkpt lat="43.48417" lon="1.62051">
        <ele>211</ele>
        <time>2018-03-03T15:09:25Z</time>
      </trkpt>
      <trkpt lat="43.48401" lon="1.62073">
        <ele>213</ele>
        <time>2018-03-03T15:09:44Z</time>
      </trkpt>
      <trkpt lat="43.48386" lon="1.62099">
        <ele>214</ele>
        <time>2018-03-03T15:10:03Z</time>
      </trkpt>
      <trkpt lat="43.4837" lon="1.62122">
        <ele>214</ele>
        <time>2018-03-03T15:10:22Z</time>
      </trkpt>
      <trkpt lat="43.48355" lon="1.62146">
        <ele>215</ele>
        <time>2018-03-03T15:10:39Z</time>
      </trkpt>
      <trkpt lat="43.48339" lon="1.62168">
        <ele>217</ele>
        <time>2018-03-03T15:10:57Z</time>
      </trkpt>
      <trkpt lat="43.48322" lon="1.62188">
        <ele>218</ele>
        <time>2018-03-03T15:11:22Z</time>
      </trkpt>
      <trkpt lat="43.48306" lon="1.62212">
        <ele>220</ele>
        <time>2018-03-03T15:11:38Z</time>
      </trkpt>
      <trkpt lat="43.48288" lon="1.62232">
        <ele>220</ele>
        <time>2018-03-03T15:12:01Z</time>
      </trkpt>
      <trkpt lat="43.4827" lon="1.62253">
        <ele>220</ele>
        <time>2018-03-03T15:12:19Z</time>
      </trkpt>
      <trkpt lat="43.48267" lon="1.62285">
        <ele>220</ele>
        <time>2018-03-03T15:12:40Z</time>
      </trkpt>
      <trkpt lat="43.48261" lon="1.62315">
        <ele>221</ele>
        <time>2018-03-03T15:12:59Z</time>
      </trkpt>
      <trkpt lat="43.48252" lon="1.62345">
        <ele>222</ele>
        <time>2018-03-03T15:13:19Z</time>
      </trkpt>
      <trkpt lat="43.48238" lon="1.6237">
        <ele>223</ele>
        <time>2018-03-03T15:13:37Z</time>
      </trkpt>
      <trkpt lat="43.48228" lon="1.62398">
        <ele>224</ele>
        <time>2018-03-03T15:13:56Z</time>
      </trkpt>
      <trkpt lat="43.48218" lon="1.62427">
        <ele>224</ele>
        <time>2018-03-03T15:14:12Z</time>
      </trkpt>
      <trkpt lat="43.48204" lon="1.62452">
        <ele>224</ele>
        <time>2018-03-03T15:14:28Z</time>
      </trkpt>
      <trkpt lat="43.48192" lon="1.62478">
        <ele>223</ele>
        <time>2018-03-03T15:14:48Z</time>
      </trkpt>
      <trkpt lat="43.48173" lon="1.62498">
        <ele>222</ele>
        <time>2018-03-03T15:15:19Z</time>
      </trkpt>
      <trkpt lat="43.4815" lon="1.625">
        <ele>223</ele>
        <time>2018-03-03T15:15:47Z</time>
      </trkpt>
      <trkpt lat="43.48129" lon="1.62492">
        <ele>225</ele>
        <time>2018-03-03T15:16:00Z</time>
      </trkpt>
      <trkpt lat="43.48107" lon="1.62481">
        <ele>225</ele>
        <time>2018-03-03T15:16:16Z</time>
      </trkpt>
      <trkpt lat="43.48085" lon="1.62472">
        <ele>226</ele>
        <time>2018-03-03T15:16:33Z</time>
      </trkpt>
      <trkpt lat="43.48064" lon="1.62461">
        <ele>226</ele>
        <time>2018-03-03T15:16:49Z</time>
      </trkpt>
      <trkpt lat="43.48042" lon="1.62453">
        <ele>227</ele>
        <time>2018-03-03T15:17:05Z</time>
      </trkpt>
      <trkpt lat="43.48019" lon="1.62445">
        <ele>227</ele>
        <time>2018-03-03T15:17:24Z</time>
      </trkpt>
      <trkpt lat="43.47997" lon="1.62433">
        <ele>227</ele>
        <time>2018-03-03T15:17:40Z</time>
      </trkpt>
      <trkpt lat="43.47975" lon="1.62427">
        <ele>229</ele>
        <time>2018-03-03T15:17:57Z</time>
      </trkpt>
      <trkpt lat="43.47953" lon="1.62417">
        <ele>230</ele>
        <time>2018-03-03T15:18:15Z</time>
      </trkpt>
      <trkpt lat="43.4793" lon="1.62409">
        <ele>232</ele>
        <time>2018-03-03T15:18:35Z</time>
      </trkpt>
      <trkpt lat="43.47907" lon="1.624">
        <ele>235</ele>
        <time>2018-03-03T15:18:54Z</time>
      </trkpt>
      <trkpt lat="43.47884" lon="1.62395">
        <ele>237</ele>
        <time>2018-03-03T15:19:12Z</time>
      </trkpt>
      <trkpt lat="43.47861" lon="1.62391">
        <ele>239</ele>
        <time>2018-03-03T15:19:29Z</time>
      </trkpt>
      <trkpt lat="43.47838" lon="1.62386">
        <ele>239</ele>
        <time>2018-03-03T15:19:47Z</time>
      </trkpt>
      <trkpt lat="43.47824" lon="1.62409">
        <ele>239</ele>
        <time>2018-03-03T15:20:17Z</time>
      </trkpt>
      <trkpt lat="43.47816" lon="1.6244">
        <ele>239</ele>
        <time>2018-03-03T15:20:36Z</time>
      </trkpt>
      <trkpt lat="43.4781" lon="1.62471">
        <ele>241</ele>
        <time>2018-03-03T15:20:53Z</time>
      </trkpt>
      <trkpt lat="43.47805" lon="1.62503">
        <ele>243</ele>
        <time>2018-03-03T15:21:09Z</time>
      </trkpt>
      <trkpt lat="43.47798" lon="1.62533">
        <ele>244</ele>
        <time>2018-03-03T15:21:29Z</time>
      </trkpt>
      <trkpt lat="43.47791" lon="1.62562">
        <ele>245</ele>
        <time>2018-03-03T15:21:45Z</time>
      </trkpt>
      <trkpt lat="43.47782" lon="1.62592">
        <ele>245</ele>
        <time>2018-03-03T15:22:03Z</time>
      </trkpt>
      <trkpt lat="43.47773" lon="1.62622">
        <ele>245</ele>
        <time>2018-03-03T15:22:21Z</time>
      </trkpt>
      <trkpt lat="43.47771" lon="1.62653">
        <ele>245</ele>
        <time>2018-03-03T15:22:36Z</time>
      </trkpt>
      <trkpt lat="43.47764" lon="1.62684">
        <ele>245</ele>
        <time>2018-03-03T15:22:53Z</time>
      </trkpt>
      <trkpt lat="43.47761" lon="1.62715">
        <ele>245</ele>
        <time>2018-03-03T15:23:11Z</time>
      </trkpt>
      <trkpt lat="43.47751" lon="1.62744">
        <ele>245</ele>
        <time>2018-03-03T15:23:31Z</time>
      </trkpt>
      <trkpt lat="43.47742" lon="1.62772">
        <ele>245</ele>
        <time>2018-03-03T15:23:48Z</time>
      </trkpt>
      <trkpt lat="43.47738" lon="1.62805">
        <ele>245</ele>
        <time>2018-03-03T15:24:04Z</time>
      </trkpt>
      <trkpt lat="43.47733" lon="1.62835">
        <ele>245</ele>
        <time>2018-03-03T15:24:20Z</time>
      </trkpt>
      <trkpt lat="43.47732" lon="1.62866">
        <ele>245</ele>
        <time>2018-03-03T15:24:36Z</time>
      </trkpt>
      <trkpt lat="43.47737" lon="1.62898">
        <ele>245</ele>
        <time>2018-03-03T15:24:53Z</time>
      </trkpt>
      <trkpt lat="43.47742" lon="1.6293">
        <ele>245</ele>
        <time>2018-03-03T15:25:09Z</time>
      </trkpt>
      <trkpt lat="43.47752" lon="1.62957">
        <ele>245</ele>
        <time>2018-03-03T15:25:24Z</time>
      </trkpt>
      <trkpt lat="43.47753" lon="1.6299">
        <ele>245</ele>
        <time>2018-03-03T15:25:43Z</time>
      </trkpt>
      <trkpt lat="43.47759" lon="1.63021">
        <ele>244</ele>
        <time>2018-03-03T15:26:00Z</time>
      </trkpt>
      <trkpt lat="43.47771" lon="1.63048">
        <ele>243</ele>
        <time>2018-03-03T15:26:18Z</time>
      </trkpt>
      <trkpt lat="43.47775" lon="1.63079">
        <ele>242</ele>
        <time>2018-03-03T15:26:36Z</time>
      </trkpt>
      <trkpt lat="43.47783" lon="1.6311">
        <ele>241</ele>
        <time>2018-03-03T15:26:52Z</time>
      </trkpt>
      <trkpt lat="43.47789" lon="1.6314">
        <ele>240</ele>
        <time>2018-03-03T15:27:11Z</time>
      </trkpt>
      <trkpt lat="43.47796" lon="1.63171">
        <ele>240</ele>
        <time>2018-03-03T15:27:27Z</time>
      </trkpt>
      <trkpt lat="43.47796" lon="1.63202">
        <ele>240</ele>
        <time>2018-03-03T15:27:45Z</time>
      </trkpt>
      <trkpt lat="43.47797" lon="1.63234">
        <ele>239</ele>
        <time>2018-03-03T15:28:02Z</time>
      </trkpt>
      <trkpt lat="43.47795" lon="1.63265">
        <ele>239</ele>
        <time>2018-03-03T15:28:20Z</time>
      </trkpt>
      <trkpt lat="43.47789" lon="1.63296">
        <ele>239</ele>
        <time>2018-03-03T15:28:38Z</time>
      </trkpt>
      <trkpt lat="43.47783" lon="1.63326">
        <ele>239</ele>
        <time>2018-03-03T15:29:05Z</time>
      </trkpt>
      <trkpt lat="43.47779" lon="1.63357">
        <ele>241</ele>
        <time>2018-03-03T15:29:21Z</time>
      </trkpt>
      <trkpt lat="43.47774" lon="1.63389">
        <ele>241</ele>
        <time>2018-03-03T15:29:40Z</time>
      </trkpt>
      <trkpt lat="43.47769" lon="1.63421">
        <ele>242</ele>
        <time>2018-03-03T15:29:58Z</time>
      </trkpt>
      <trkpt lat="43.4776" lon="1.6345">
        <ele>243</ele>
        <time>2018-03-03T15:30:16Z</time>
      </trkpt>
      <trkpt lat="43.47749" lon="1.63478">
        <ele>244</ele>
        <time>2018-03-03T15:30:33Z</time>
      </trkpt>
      <trkpt lat="43.47744" lon="1.6351">
        <ele>246</ele>
        <time>2018-03-03T15:30:50Z</time>
      </trkpt>
      <trkpt lat="43.47738" lon="1.63541">
        <ele>247</ele>
        <time>2018-03-03T15:31:08Z</time>
      </trkpt>
      <trkpt lat="43.47731" lon="1.63572">
        <ele>248</ele>
        <time>2018-03-03T15:31:27Z</time>
      </trkpt>
      <trkpt lat="43.47726" lon="1.63602">
        <ele>249</ele>
        <time>2018-03-03T15:31:45Z</time>
      </trkpt>
      <trkpt lat="43.47718" lon="1.63632">
        <ele>249</ele>
        <time>2018-03-03T15:32:13Z</time>
      </trkpt>
      <trkpt lat="43.47708" lon="1.63662">
        <ele>249</ele>
        <time>2018-03-03T15:32:32Z</time>
      </trkpt>
      <trkpt lat="43.47703" lon="1.63692">
        <ele>249</ele>
        <time>2018-03-03T15:32:50Z</time>
      </trkpt>
      <trkpt lat="43.477" lon="1.63725">
        <ele>250</ele>
        <time>2018-03-03T15:33:08Z</time>
      </trkpt>
      <trkpt lat="43.47696" lon="1.63756">
        <ele>250</ele>
        <time>2018-03-03T15:33:25Z</time>
      </trkpt>
      <trkpt lat="43.47694" lon="1.63787">
        <ele>250</ele>
        <time>2018-03-03T15:33:41Z</time>
      </trkpt>
      <trkpt lat="43.47693" lon="1.63818">
        <ele>250</ele>
        <time>2018-03-03T15:33:57Z</time>
      </trkpt>
      <trkpt lat="43.47693" lon="1.63851">
        <ele>250</ele>
        <time>2018-03-03T15:34:15Z</time>
      </trkpt>
      <trkpt lat="43.47694" lon="1.63883">
        <ele>250</ele>
        <time>2018-03-03T15:34:33Z</time>
      </trkpt>
      <trkpt lat="43.47695" lon="1.63915">
        <ele>250</ele>
        <time>2018-03-03T15:34:51Z</time>
      </trkpt>
      <trkpt lat="43.4769" lon="1.63946">
        <ele>250</ele>
        <time>2018-03-03T15:35:10Z</time>
      </trkpt>
      <trkpt lat="43.47685" lon="1.63978">
        <ele>250</ele>
        <time>2018-03-03T15:35:28Z</time>
      </trkpt>
      <trkpt lat="43.4768" lon="1.64009">
        <ele>250</ele>
        <time>2018-03-03T15:35:47Z</time>
      </trkpt>
      <trkpt lat="43.47673" lon="1.64039">
        <ele>250</ele>
        <time>2018-03-03T15:36:23Z</time>
      </trkpt>
      <trkpt lat="43.47673" lon="1.64071">
        <ele>250</ele>
        <time>2018-03-03T15:37:16Z</time>
      </trkpt>
      <trkpt lat="43.47672" lon="1.64104">
        <ele>250</ele>
        <time>2018-03-03T15:37:33Z</time>
      </trkpt>
      <trkpt lat="43.47666" lon="1.64135">
        <ele>249</ele>
        <time>2018-03-03T15:37:50Z</time>
      </trkpt>
      <trkpt lat="43.47666" lon="1.64166">
        <ele>249</ele>
        <time>2018-03-03T15:38:06Z</time>
      </trkpt>
      <trkpt lat="43.47665" lon="1.64198">
        <ele>248</ele>
        <time>2018-03-03T15:38:24Z</time>
      </trkpt>
      <trkpt lat="43.47663" lon="1.64231">
        <ele>248</ele>
        <time>2018-03-03T15:38:39Z</time>
      </trkpt>
      <trkpt lat="43.47663" lon="1.64262">
        <ele>248</ele>
        <time>2018-03-03T15:38:57Z</time>
      </trkpt>
      <trkpt lat="43.47664" lon="1.64294">
        <ele>247</ele>
        <time>2018-03-03T15:39:13Z</time>
      </trkpt>
      <trkpt lat="43.47666" lon="1.64326">
        <ele>246</ele>
        <time>2018-03-03T15:39:32Z</time>
      </trkpt>
      <trkpt lat="43.47664" lon="1.64357">
        <ele>246</ele>
        <time>2018-03-03T15:39:46Z</time>
      </trkpt>
      <trkpt lat="43.47663" lon="1.64389">
        <ele>246</ele>
        <time>2018-03-03T15:40:04Z</time>
      </trkpt>
      <trkpt lat="43.4766" lon="1.64421">
        <ele>245</ele>
        <time>2018-03-03T15:40:21Z</time>
      </trkpt>
      <trkpt lat="43.47657" lon="1.64451">
        <ele>244</ele>
        <time>2018-03-03T15:40:36Z</time>
      </trkpt>
      <trkpt lat="43.47654" lon="1.64483">
        <ele>243</ele>
        <time>2018-03-03T15:40:54Z</time>
      </trkpt>
      <trkpt lat="43.47651" lon="1.64515">
        <ele>241</ele>
        <time>2018-03-03T15:41:12Z</time>
      </trkpt>
      <trkpt lat="43.47649" lon="1.64548">
        <ele>241</ele>
        <time>2018-03-03T15:41:28Z</time>
      </trkpt>
      <trkpt lat="43.47651" lon="1.6458">
        <ele>241</ele>
        <time>2018-03-03T15:41:43Z</time>
      </trkpt>
      <trkpt lat="43.4765" lon="1.64612">
        <ele>241</ele>
        <time>2018-03-03T15:42:00Z</time>
      </trkpt>
      <trkpt lat="43.47648" lon="1.64643">
        <ele>241</ele>
        <time>2018-03-03T15:42:18Z</time>
      </trkpt>
      <trkpt lat="43.47643" lon="1.64674">
        <ele>241</ele>
        <time>2018-03-03T15:42:34Z</time>
      </trkpt>
      <trkpt lat="43.47641" lon="1.64707">
        <ele>240</ele>
        <time>2018-03-03T15:42:50Z</time>
      </trkpt>
      <trkpt lat="43.47635" lon="1.64737">
        <ele>239</ele>
        <time>2018-03-03T15:43:05Z</time>
      </trkpt>
      <trkpt lat="43.47632" lon="1.64768">
        <ele>237</ele>
        <time>2018-03-03T15:43:25Z</time>
      </trkpt>
      <trkpt lat="43.47634" lon="1.64799">
        <ele>235</ele>
        <time>2018-03-03T15:43:39Z</time>
      </trkpt>
      <trkpt lat="43.47629" lon="1.64831">
        <ele>232</ele>
        <time>2018-03-03T15:43:56Z</time>
      </trkpt>
      <trkpt lat="43.47626" lon="1.64862">
        <ele>230</ele>
        <time>2018-03-03T15:44:14Z</time>
      </trkpt>
      <trkpt lat="43.47624" lon="1.64894">
        <ele>230</ele>
        <time>2018-03-03T15:44:41Z</time>
      </trkpt>
      <trkpt lat="43.47622" lon="1.64926">
        <ele>231</ele>
        <time>2018-03-03T15:44:59Z</time>
      </trkpt>
      <trkpt lat="43.47618" lon="1.64958">
        <ele>232</ele>
        <time>2018-03-03T15:45:17Z</time>
      </trkpt>
      <trkpt lat="43.47614" lon="1.64991">
        <ele>234</ele>
        <time>2018-03-03T15:45:35Z</time>
      </trkpt>
      <trkpt lat="43.47614" lon="1.65023">
        <ele>235</ele>
        <time>2018-03-03T15:45:55Z</time>
      </trkpt>
      <trkpt lat="43.4761" lon="1.65055">
        <ele>236</ele>
        <time>2018-03-03T15:46:12Z</time>
      </trkpt>
      <trkpt lat="43.47611" lon="1.65086">
        <ele>237</ele>
        <time>2018-03-03T15:46:29Z</time>
      </trkpt>
      <trkpt lat="43.47608" lon="1.65118">
        <ele>237</ele>
        <time>2018-03-03T15:46:46Z</time>
      </trkpt>
      <trkpt lat="43.47607" lon="1.6515">
        <ele>237</ele>
        <time>2018-03-03T15:47:00Z</time>
      </trkpt>
      <trkpt lat="43.47601" lon="1.65182">
        <ele>236</ele>
        <time>2018-03-03T15:47:17Z</time>
      </trkpt>
      <trkpt lat="43.47593" lon="1.6521">
        <ele>235</ele>
        <time>2018-03-03T15:47:32Z</time>
      </trkpt>
      <trkpt lat="43.47587" lon="1.65241">
        <ele>233</ele>
        <time>2018-03-03T15:47:52Z</time>
      </trkpt>
      <trkpt lat="43.47581" lon="1.65272">
        <ele>230</ele>
        <time>2018-03-03T15:48:09Z</time>
      </trkpt>
      <trkpt lat="43.47576" lon="1.65303">
        <ele>229</ele>
        <time>2018-03-03T15:48:27Z</time>
      </trkpt>
      <trkpt lat="43.47581" lon="1.65335">
        <ele>230</ele>
        <time>2018-03-03T15:49:29Z</time>
      </trkpt>
      <trkpt lat="43.47578" lon="1.65367">
        <ele>230</ele>
        <time>2018-03-03T15:49:47Z</time>
      </trkpt>
      <trkpt lat="43.4757" lon="1.65398">
        <ele>231</ele>
        <time>2018-03-03T15:50:05Z</time>
      </trkpt>
      <trkpt lat="43.47562" lon="1.65428">
        <ele>232</ele>
        <time>2018-03-03T15:50:24Z</time>
      </trkpt>
      <trkpt lat="43.47556" lon="1.65459">
        <ele>233</ele>
        <time>2018-03-03T15:50:43Z</time>
      </trkpt>
      <trkpt lat="43.4755" lon="1.65491">
        <ele>233</ele>
        <time>2018-03-03T15:51:02Z</time>
      </trkpt>
      <trkpt lat="43.4754" lon="1.65521">
        <ele>233</ele>
        <time>2018-03-03T15:51:21Z</time>
      </trkpt>
      <trkpt lat="43.47535" lon="1.65551">
        <ele>233</ele>
        <time>2018-03-03T15:51:40Z</time>
      </trkpt>
      <trkpt lat="43.47526" lon="1.65581">
        <ele>233</ele>
        <time>2018-03-03T15:52:07Z</time>
      </trkpt>
      <trkpt lat="43.47503" lon="1.65586">
        <ele>230</ele>
        <time>2018-03-03T15:52:22Z</time>
      </trkpt>
      <trkpt lat="43.47481" lon="1.65585">
        <ele>229</ele>
        <time>2018-03-03T15:52:40Z</time>
      </trkpt>
      <trkpt lat="43.47457" lon="1.65585">
        <ele>228</ele>
        <time>2018-03-03T15:52:58Z</time>
      </trkpt>
      <trkpt lat="43.47434" lon="1.65585">
        <ele>227</ele>
        <time>2018-03-03T15:53:16Z</time>
      </trkpt>
      <trkpt lat="43.47418" lon="1.65606">
        <ele>227</ele>
        <time>2018-03-03T15:53:33Z</time>
      </trkpt>
      <trkpt lat="43.47404" lon="1.65632">
        <ele>227</ele>
        <time>2018-03-03T15:53:48Z</time>
      </trkpt>
      <trkpt lat="43.47389" lon="1.65656">
        <ele>227</ele>
        <time>2018-03-03T15:54:05Z</time>
      </trkpt>
      <trkpt lat="43.47377" lon="1.65683">
        <ele>227</ele>
        <time>2018-03-03T15:54:24Z</time>
      </trkpt>
      <trkpt lat="43.47362" lon="1.65707">
        <ele>227</ele>
        <time>2018-03-03T15:54:41Z</time>
      </trkpt>
      <trkpt lat="43.47346" lon="1.6573">
        <ele>227</ele>
        <time>2018-03-03T15:54:55Z</time>
      </trkpt>
      <trkpt lat="43.47333" lon="1.65756">
        <ele>227</ele>
        <time>2018-03-03T15:55:11Z</time>
      </trkpt>
      <trkpt lat="43.47319" lon="1.65783">
        <ele>228</ele>
        <time>2018-03-03T15:55:30Z</time>
      </trkpt>
      <trkpt lat="43.47305" lon="1.65807">
        <ele>229</ele>
        <time>2018-03-03T15:55:47Z</time>
      </trkpt>
      <trkpt lat="43.47291" lon="1.65832">
        <ele>229</ele>
        <time>2018-03-03T15:56:05Z</time>
      </trkpt>
      <trkpt lat="43.47276" lon="1.65857">
        <ele>230</ele>
        <time>2018-03-03T15:56:20Z</time>
      </trkpt>
      <trkpt lat="43.47259" lon="1.65879">
        <ele>231</ele>
        <time>2018-03-03T15:56:35Z</time>
      </trkpt>
      <trkpt lat="43.47247" lon="1.65906">
        <ele>233</ele>
        <time>2018-03-03T15:56:54Z</time>
      </trkpt>
      <trkpt lat="43.47229" lon="1.65926">
        <ele>234</ele>
        <time>2018-03-03T15:57:11Z</time>
      </trkpt>
      <trkpt lat="43.47207" lon="1.65926">
        <ele>234</ele>
        <time>2018-03-03T15:57:28Z</time>
      </trkpt>
      <trkpt lat="43.47184" lon="1.65931">
        <ele>232</ele>
        <time>2018-03-03T15:57:52Z</time>
      </trkpt>
      <trkpt lat="43.47161" lon="1.65936">
        <ele>226</ele>
        <time>2018-03-03T15:58:11Z</time>
      </trkpt>
      <trkpt lat="43.47141" lon="1.65951">
        <ele>222</ele>
        <time>2018-03-03T15:58:31Z</time>
      </trkpt>
      <trkpt lat="43.47121" lon="1.65968">
        <ele>216</ele>
        <time>2018-03-03T15:58:49Z</time>
      </trkpt>
      <trkpt lat="43.471" lon="1.65982">
        <ele>212</ele>
        <time>2018-03-03T15:59:08Z</time>
      </trkpt>
      <trkpt lat="43.47079" lon="1.65997">
        <ele>208</ele>
        <time>2018-03-03T15:59:25Z</time>
      </trkpt>
      <trkpt lat="43.47059" lon="1.66013">
        <ele>205</ele>
        <time>2018-03-03T15:59:44Z</time>
      </trkpt>
      <trkpt lat="43.47039" lon="1.66027">
        <ele>203</ele>
        <time>2018-03-03T16:00:03Z</time>
      </trkpt>
      <trkpt lat="43.47019" lon="1.66043">
        <ele>200</ele>
        <time>2018-03-03T16:00:20Z</time>
      </trkpt>
      <trkpt lat="43.46998" lon="1.66055">
        <ele>196</ele>
        <time>2018-03-03T16:00:40Z</time>
      </trkpt>
      <trkpt lat="43.46979" lon="1.66075">
        <ele>194</ele>
        <time>2018-03-03T16:00:59Z</time>
      </trkpt>
      <trkpt lat="43.46958" lon="1.66086">
        <ele>191</ele>
        <time>2018-03-03T16:01:14Z</time>
      </trkpt>
      <trkpt lat="43.46937" lon="1.66102">
        <ele>189</ele>
        <time>2018-03-03T16:01:33Z</time>
      </trkpt>
      <trkpt lat="43.46916" lon="1.66112">
        <ele>187</ele>
        <time>2018-03-03T16:01:51Z</time>
      </trkpt>
      <trkpt lat="43.46893" lon="1.66114">
        <ele>185</ele>
        <time>2018-03-03T16:02:07Z</time>
      </trkpt>
      <trkpt lat="43.46869" lon="1.66114">
        <ele>185</ele>
        <time>2018-03-03T16:02:26Z</time>
      </trkpt>
      <trkpt lat="43.4686" lon="1.66085">
        <ele>185</ele>
        <time>2018-03-03T16:02:55Z</time>
      </trkpt>
      <trkpt lat="43.46851" lon="1.66056">
        <ele>185</ele>
        <time>2018-03-03T16:03:15Z</time>
      </trkpt>
      <trkpt lat="43.46843" lon="1.66025">
        <ele>185</ele>
        <time>2018-03-03T16:03:36Z</time>
      </trkpt>
      <trkpt lat="43.46832" lon="1.65996">
        <ele>185</ele>
        <time>2018-03-03T16:03:52Z</time>
      </trkpt>
      <trkpt lat="43.46817" lon="1.65971">
        <ele>185</ele>
        <time>2018-03-03T16:04:08Z</time>
      </trkpt>
      <trkpt lat="43.46807" lon="1.65941">
        <ele>185</ele>
        <time>2018-03-03T16:04:24Z</time>
      </trkpt>
      <trkpt lat="43.46796" lon="1.65913">
        <ele>185</ele>
        <time>2018-03-03T16:04:41Z</time>
      </trkpt>
      <trkpt lat="43.46782" lon="1.65889">
        <ele>185</ele>
        <time>2018-03-03T16:04:57Z</time>
      </trkpt>
      <trkpt lat="43.46767" lon="1.65865">
        <ele>185</ele>
        <time>2018-03-03T16:05:14Z</time>
      </trkpt>
      <trkpt lat="43.46752" lon="1.65839">
        <ele>184</ele>
        <time>2018-03-03T16:05:32Z</time>
      </trkpt>
      <trkpt lat="43.46738" lon="1.65816">
        <ele>184</ele>
        <time>2018-03-03T16:05:46Z</time>
      </trkpt>
      <trkpt lat="43.46728" lon="1.65787">
        <ele>183</ele>
        <time>2018-03-03T16:06:14Z</time>
      </trkpt>
      <trkpt lat="43.46705" lon="1.65784">
        <ele>184</ele>
        <time>2018-03-03T16:06:36Z</time>
      </trkpt>
      <trkpt lat="43.46681" lon="1.6579">
        <ele>185</ele>
        <time>2018-03-03T16:06:56Z</time>
      </trkpt>
      <trkpt lat="43.46658" lon="1.65789">
        <ele>186</ele>
        <time>2018-03-03T16:08:31Z</time>
      </trkpt>
      <trkpt lat="43.46635" lon="1.65791">
        <ele>188</ele>
        <time>2018-03-03T16:08:49Z</time>
      </trkpt>
      <trkpt lat="43.46611" lon="1.65791">
        <ele>188</ele>
        <time>2018-03-03T16:09:07Z</time>
      </trkpt>
      <trkpt lat="43.46588" lon="1.65791">
        <ele>190</ele>
        <time>2018-03-03T16:09:25Z</time>
      </trkpt>
      <trkpt lat="43.46564" lon="1.65793">
        <ele>191</ele>
        <time>2018-03-03T16:09:47Z</time>
      </trkpt>
      <trkpt lat="43.46541" lon="1.65794">
        <ele>192</ele>
        <time>2018-03-03T16:10:07Z</time>
      </trkpt>
      <trkpt lat="43.46518" lon="1.65798">
        <ele>192</ele>
        <time>2018-03-03T16:10:25Z</time>
      </trkpt>
      <trkpt lat="43.46494" lon="1.65796">
        <ele>193</ele>
        <time>2018-03-03T16:10:41Z</time>
      </trkpt>
      <trkpt lat="43.46471" lon="1.65797">
        <ele>195</ele>
        <time>2018-03-03T16:11:02Z</time>
      </trkpt>
      <trkpt lat="43.46457" lon="1.65822">
        <ele>195</ele>
        <time>2018-03-03T16:11:17Z</time>
      </trkpt>
      <trkpt lat="43.46438" lon="1.65838">
        <ele>195</ele>
        <time>2018-03-03T16:11:35Z</time>
      </trkpt>
      <trkpt lat="43.46416" lon="1.65828">
        <ele>195</ele>
        <time>2018-03-03T16:11:50Z</time>
      </trkpt>
      <trkpt lat="43.46395" lon="1.65815">
        <ele>195</ele>
        <time>2018-03-03T16:12:06Z</time>
      </trkpt>
      <trkpt lat="43.46373" lon="1.658">
        <ele>194</ele>
        <time>2018-03-03T16:12:24Z</time>
      </trkpt>
      <trkpt lat="43.46353" lon="1.65783">
        <ele>194</ele>
        <time>2018-03-03T16:12:42Z</time>
      </trkpt>
      <trkpt lat="43.46336" lon="1.65761">
        <ele>194</ele>
        <time>2018-03-03T16:12:58Z</time>
      </trkpt>
      <trkpt lat="43.46315" lon="1.65745">
        <ele>195</ele>
        <time>2018-03-03T16:13:17Z</time>
      </trkpt>
      <trkpt lat="43.46296" lon="1.65728">
        <ele>197</ele>
        <time>2018-03-03T16:13:34Z</time>
      </trkpt>
      <trkpt lat="43.46277" lon="1.6571">
        <ele>198</ele>
        <time>2018-03-03T16:13:53Z</time>
      </trkpt>
      <trkpt lat="43.46257" lon="1.65695">
        <ele>199</ele>
        <time>2018-03-03T16:14:09Z</time>
      </trkpt>
      <trkpt lat="43.46237" lon="1.65681">
        <ele>200</ele>
        <time>2018-03-03T16:14:27Z</time>
      </trkpt>
      <trkpt lat="43.46217" lon="1.65666">
        <ele>200</ele>
        <time>2018-03-03T16:14:43Z</time>
      </trkpt>
      <trkpt lat="43.46198" lon="1.65649">
        <ele>202</ele>
        <time>2018-03-03T16:15:01Z</time>
      </trkpt>
      <trkpt lat="43.46179" lon="1.65632">
        <ele>202</ele>
        <time>2018-03-03T16:15:18Z</time>
      </trkpt>
      <trkpt lat="43.46159" lon="1.65614">
        <ele>202</ele>
        <time>2018-03-03T16:15:35Z</time>
      </trkpt>
      <trkpt lat="43.4614" lon="1.65599">
        <ele>202</ele>
        <time>2018-03-03T16:15:53Z</time>
      </trkpt>
      <trkpt lat="43.4612" lon="1.65584">
        <ele>201</ele>
        <time>2018-03-03T16:16:28Z</time>
      </trkpt>
      <trkpt lat="43.46099" lon="1.65567">
        <ele>200</ele>
        <time>2018-03-03T16:19:29Z</time>
      </trkpt>
      <trkpt lat="43.4608" lon="1.6555">
        <ele>199</ele>
        <time>2018-03-03T16:20:40Z</time>
      </trkpt>
      <trkpt lat="43.46058" lon="1.65541">
        <ele>198</ele>
        <time>2018-03-03T16:21:01Z</time>
      </trkpt>
      <trkpt lat="43.46035" lon="1.65543">
        <ele>198</ele>
        <time>2018-03-03T16:21:18Z</time>
      </trkpt>
      <trkpt lat="43.46016" lon="1.65527">
        <ele>198</ele>
        <time>2018-03-03T16:21:46Z</time>
      </trkpt>
      <trkpt lat="43.46" lon="1.65503">
        <ele>199</ele>
        <time>2018-03-03T16:22:06Z</time>
      </trkpt>
      <trkpt lat="43.45987" lon="1.65478">
        <ele>201</ele>
        <time>2018-03-03T16:22:26Z</time>
      </trkpt>
      <trkpt lat="43.45976" lon="1.65451">
        <ele>202</ele>
        <time>2018-03-03T16:22:51Z</time>
      </trkpt>
      <trkpt lat="43.45961" lon="1.65427">
        <ele>205</ele>
        <time>2018-03-03T16:23:18Z</time>
      </trkpt>
      <trkpt lat="43.45947" lon="1.65402">
        <ele>208</ele>
        <time>2018-03-03T16:23:38Z</time>
      </trkpt>
      <trkpt lat="43.45934" lon="1.65376">
        <ele>210</ele>
        <time>2018-03-03T16:24:00Z</time>
      </trkpt>
      <trkpt lat="43.45918" lon="1.65352">
        <ele>212</ele>
        <time>2018-03-03T16:24:18Z</time>
      </trkpt>
      <trkpt lat="43.45904" lon="1.65327">
        <ele>212</ele>
        <time>2018-03-03T16:24:38Z</time>
      </trkpt>
      <trkpt lat="43.45886" lon="1.65305">
        <ele>213</ele>
        <time>2018-03-03T16:24:59Z</time>
      </trkpt>
      <trkpt lat="43.45872" lon="1.65281">
        <ele>214</ele>
        <time>2018-03-03T16:25:18Z</time>
      </trkpt>
      <trkpt lat="43.45853" lon="1.65261">
        <ele>215</ele>
        <time>2018-03-03T16:25:38Z</time>
      </trkpt>
      <trkpt lat="43.45834" lon="1.65244">
        <ele>216</ele>
        <time>2018-03-03T16:25:59Z</time>
      </trkpt>
      <trkpt lat="43.45814" lon="1.65229">
        <ele>216</ele>
        <time>2018-03-03T16:26:14Z</time>
      </trkpt>
      <trkpt lat="43.45793" lon="1.65216">
        <ele>216</ele>
        <time>2018-03-03T16:26:32Z</time>
      </trkpt>
      <trkpt lat="43.45772" lon="1.65205">
        <ele>214</ele>
        <time>2018-03-03T16:26:52Z</time>
      </trkpt>
      <trkpt lat="43.45751" lon="1.65192">
        <ele>211</ele>
        <time>2018-03-03T16:27:09Z</time>
      </trkpt>
      <trkpt lat="43.45733" lon="1.65174">
        <ele>208</ele>
        <time>2018-03-03T16:27:26Z</time>
      </trkpt>
      <trkpt lat="43.45717" lon="1.65149">
        <ele>205</ele>
        <time>2018-03-03T16:27:44Z</time>
      </trkpt>
      <trkpt lat="43.45713" lon="1.65118">
        <ele>202</ele>
        <time>2018-03-03T16:29:01Z</time>
      </trkpt>
      <trkpt lat="43.45705" lon="1.65087">
        <ele>200</ele>
        <time>2018-03-03T16:29:21Z</time>
      </trkpt>
      <trkpt lat="43.45698" lon="1.65057">
        <ele>198</ele>
        <time>2018-03-03T16:29:39Z</time>
      </trkpt>
      <trkpt lat="43.4569" lon="1.65028">
        <ele>196</ele>
        <time>2018-03-03T16:29:57Z</time>
      </trkpt>
      <trkpt lat="43.45691" lon="1.64996">
        <ele>195</ele>
        <time>2018-03-03T16:30:15Z</time>
      </trkpt>
      <trkpt lat="43.45696" lon="1.64964">
        <ele>194</ele>
        <time>2018-03-03T16:30:32Z</time>
      </trkpt>
      <trkpt lat="43.45699" lon="1.64933">
        <ele>194</ele>
        <time>2018-03-03T16:30:51Z</time>
      </trkpt>
      <trkpt lat="43.45699" lon="1.64901">
        <ele>194</ele>
        <time>2018-03-03T16:31:09Z</time>
      </trkpt>
      <trkpt lat="43.45719" lon="1.64883">
        <ele>194</ele>
        <time>2018-03-03T16:32:00Z</time>
      </trkpt>
      <trkpt lat="43.45735" lon="1.64861">
        <ele>194</ele>
        <time>2018-03-03T16:32:19Z</time>
      </trkpt>
      <trkpt lat="43.45753" lon="1.64839">
        <ele>194</ele>
        <time>2018-03-03T16:32:36Z</time>
      </trkpt>
      <trkpt lat="43.4577" lon="1.64817">
        <ele>195</ele>
        <time>2018-03-03T16:32:53Z</time>
      </trkpt>
      <trkpt lat="43.45787" lon="1.64796">
        <ele>196</ele>
        <time>2018-03-03T16:33:09Z</time>
      </trkpt>
      <trkpt lat="43.45801" lon="1.64771">
        <ele>197</ele>
        <time>2018-03-03T16:33:26Z</time>
      </trkpt>
      <trkpt lat="43.45821" lon="1.64754">
        <ele>199</ele>
        <time>2018-03-03T16:33:46Z</time>
      </trkpt>
      <trkpt lat="43.45842" lon="1.64768">
        <ele>202</ele>
        <time>2018-03-03T16:34:06Z</time>
      </trkpt>
      <trkpt lat="43.45864" lon="1.64778">
        <ele>203</ele>
        <time>2018-03-03T16:34:27Z</time>
      </trkpt>
      <trkpt lat="43.45885" lon="1.6479">
        <ele>206</ele>
        <time>2018-03-03T16:34:45Z</time>
      </trkpt>
      <trkpt lat="43.45907" lon="1.64785">
        <ele>206</ele>
        <time>2018-03-03T16:35:32Z</time>
      </trkpt>
      <trkpt lat="43.45919" lon="1.64757">
        <ele>205</ele>
        <time>2018-03-03T16:35:50Z</time>
      </trkpt>
      <trkpt lat="43.45931" lon="1.6473">
        <ele>204</ele>
        <time>2018-03-03T16:36:06Z</time>
      </trkpt>
      <trkpt lat="43.45944" lon="1.64704">
        <ele>203</ele>
        <time>2018-03-03T16:36:26Z</time>
      </trkpt>
      <trkpt lat="43.45956" lon="1.64678">
        <ele>201</ele>
        <time>2018-03-03T16:36:44Z</time>
      </trkpt>
      <trkpt lat="43.45968" lon="1.64652">
        <ele>200</ele>
        <time>2018-03-03T16:37:00Z</time>
      </trkpt>
      <trkpt lat="43.45985" lon="1.6463">
        <ele>198</ele>
        <time>2018-03-03T16:37:17Z</time>
      </trkpt>
      <trkpt lat="43.45999" lon="1.64604">
        <ele>196</ele>
        <time>2018-03-03T16:37:34Z</time>
      </trkpt>
      <trkpt lat="43.46014" lon="1.6458">
        <ele>195</ele>
        <time>2018-03-03T16:37:51Z</time>
      </trkpt>
      <trkpt lat="43.46027" lon="1.64554">
        <ele>193</ele>
        <time>2018-03-03T16:38:09Z</time>
      </trkpt>
      <trkpt lat="43.46039" lon="1.64527">
        <ele>191</ele>
        <time>2018-03-03T16:38:26Z</time>
      </trkpt>
      <trkpt lat="43.46054" lon="1.64503">
        <ele>190</ele>
        <time>2018-03-03T16:38:44Z</time>
      </trkpt>
      <trkpt lat="43.46067" lon="1.64477">
        <ele>189</ele>
        <time>2018-03-03T16:39:02Z</time>
      </trkpt>
      <trkpt lat="43.46082" lon="1.64453">
        <ele>188</ele>
        <time>2018-03-03T16:39:18Z</time>
      </trkpt>
      <trkpt lat="43.46097" lon="1.6443">
        <ele>187</ele>
        <time>2018-03-03T16:39:36Z</time>
      </trkpt>
      <trkpt lat="43.46112" lon="1.64406">
        <ele>186</ele>
        <time>2018-03-03T16:39:51Z</time>
      </trkpt>
      <trkpt lat="43.46127" lon="1.64382">
        <ele>185</ele>
        <time>2018-03-03T16:40:10Z</time>
      </trkpt>
      <trkpt lat="43.46139" lon="1.64356">
        <ele>185</ele>
        <time>2018-03-03T16:40:30Z</time>
      </trkpt>
      <trkpt lat="43.46161" lon="1.64349">
        <ele>185</ele>
        <time>2018-03-03T16:40:52Z</time>
      </trkpt>
      <trkpt lat="43.46185" lon="1.6434">
        <ele>184</ele>
        <time>2018-03-03T16:41:15Z</time>
      </trkpt>
      <trkpt lat="43.46208" lon="1.64333">
        <ele>184</ele>
        <time>2018-03-03T16:41:30Z</time>
      </trkpt>
      <trkpt lat="43.46231" lon="1.64327">
        <ele>183</ele>
        <time>2018-03-03T16:41:52Z</time>
      </trkpt>
      <trkpt lat="43.46254" lon="1.64323">
        <ele>182</ele>
        <time>2018-03-03T16:42:10Z</time>
      </trkpt>
      <trkpt lat="43.46276" lon="1.64316">
        <ele>181</ele>
        <time>2018-03-03T16:42:28Z</time>
      </trkpt>
      <trkpt lat="43.463" lon="1.64314">
        <ele>180</ele>
        <time>2018-03-03T16:42:54Z</time>
      </trkpt>
      <trkpt lat="43.46323" lon="1.64306">
        <ele>179</ele>
        <time>2018-03-03T16:43:13Z</time>
      </trkpt>
      <trkpt lat="43.46345" lon="1.64298">
        <ele>178</ele>
        <time>2018-03-03T16:43:29Z</time>
      </trkpt>
      <trkpt lat="43.46368" lon="1.64295">
        <ele>177</ele>
        <time>2018-03-03T16:43:46Z</time>
      </trkpt>
      <trkpt lat="43.46392" lon="1.64292">
        <ele>176</ele>
        <time>2018-03-03T16:44:04Z</time>
      </trkpt>
      <trkpt lat="43.46414" lon="1.64287">
        <ele>175</ele>
        <time>2018-03-03T16:44:18Z</time>
      </trkpt>
      <trkpt lat="43.46437" lon="1.64284">
        <ele>175</ele>
        <time>2018-03-03T16:44:34Z</time>
      </trkpt>
      <trkpt lat="43.4646" lon="1.64278">
        <ele>177</ele>
        <time>2018-03-03T16:44:51Z</time>
      </trkpt>
      <trkpt lat="43.46482" lon="1.64264">
        <ele>179</ele>
        <time>2018-03-03T16:45:11Z</time>
      </trkpt>
      <trkpt lat="43.46477" lon="1.64233">
        <ele>178</ele>
        <time>2018-03-03T16:46:01Z</time>
      </trkpt>
      <trkpt lat="43.46477" lon="1.64201">
        <ele>179</ele>
        <time>2018-03-03T16:46:18Z</time>
      </trkpt>
      <trkpt lat="43.46475" lon="1.6417">
        <ele>179</ele>
        <time>2018-03-03T16:46:35Z</time>
      </trkpt>
      <trkpt lat="43.46471" lon="1.6414">
        <ele>179</ele>
        <time>2018-03-03T16:46:52Z</time>
      </trkpt>
      <trkpt lat="43.46469" lon="1.64108">
        <ele>179</ele>
        <time>2018-03-03T16:47:08Z</time>
      </trkpt>
      <trkpt lat="43.46467" lon="1.64077">
        <ele>180</ele>
        <time>2018-03-03T16:47:26Z</time>
      </trkpt>
      <trkpt lat="43.46462" lon="1.64046">
        <ele>179</ele>
        <time>2018-03-03T16:47:41Z</time>
      </trkpt>
      <trkpt lat="43.46455" lon="1.64015">
        <ele>179</ele>
        <time>2018-03-03T16:47:59Z</time>
      </trkpt>
      <trkpt lat="43.46447" lon="1.63986">
        <ele>179</ele>
        <time>2018-03-03T16:48:15Z</time>
      </trkpt>
      <trkpt lat="43.46435" lon="1.63959">
        <ele>179</ele>
        <time>2018-03-03T16:48:31Z</time>
      </trkpt>
      <trkpt lat="43.46422" lon="1.63933">
        <ele>179</ele>
        <time>2018-03-03T16:48:49Z</time>
      </trkpt>
      <trkpt lat="43.46412" lon="1.63905">
        <ele>179</ele>
        <time>2018-03-03T16:49:06Z</time>
      </trkpt>
      <trkpt lat="43.46397" lon="1.63881">
        <ele>179</ele>
        <time>2018-03-03T16:49:22Z</time>
      </trkpt>
      <trkpt lat="43.46381" lon="1.63857">
        <ele>179</ele>
        <time>2018-03-03T16:49:40Z</time>
      </trkpt>
      <trkpt lat="43.46372" lon="1.63827">
        <ele>179</ele>
        <time>2018-03-03T16:49:57Z</time>
      </trkpt>
      <trkpt lat="43.4636" lon="1.638">
        <ele>178</ele>
        <time>2018-03-03T16:50:14Z</time>
      </trkpt>
      <trkpt lat="43.46346" lon="1.63774">
        <ele>179</ele>
        <time>2018-03-03T16:50:35Z</time>
      </trkpt>
      <trkpt lat="43.46336" lon="1.63745">
        <ele>178</ele>
        <time>2018-03-03T16:50:55Z</time>
      </trkpt>
      <trkpt lat="43.4633" lon="1.63715">
        <ele>179</ele>
        <time>2018-03-03T16:51:11Z</time>
      </trkpt>
      <trkpt lat="43.46326" lon="1.63683">
        <ele>179</ele>
        <time>2018-03-03T16:51:29Z</time>
      </trkpt>
      <trkpt lat="43.46316" lon="1.63655">
        <ele>178</ele>
        <time>2018-03-03T16:51:45Z</time>
      </trkpt>
      <trkpt lat="43.46304" lon="1.63627">
        <ele>176</ele>
        <time>2018-03-03T16:52:02Z</time>
      </trkpt>
      <trkpt lat="43.4629" lon="1.63601">
        <ele>176</ele>
        <time>2018-03-03T16:52:19Z</time>
      </trkpt>
      <trkpt lat="43.46277" lon="1.63574">
        <ele>175</ele>
        <time>2018-03-03T16:52:35Z</time>
      </trkpt>
      <trkpt lat="43.46264" lon="1.63548">
        <ele>175</ele>
        <time>2018-03-03T16:52:52Z</time>
      </trkpt>
      <trkpt lat="43.46251" lon="1.63523">
        <ele>175</ele>
        <time>2018-03-03T16:53:08Z</time>
      </trkpt>
      <trkpt lat="43.4624" lon="1.63494">
        <ele>175</ele>
        <time>2018-03-03T16:53:25Z</time>
      </trkpt>
      <trkpt lat="43.46233" lon="1.63463">
        <ele>175</ele>
        <time>2018-03-03T16:53:43Z</time>
      </trkpt>
      <trkpt lat="43.46228" lon="1.63432">
        <ele>175</ele>
        <time>2018-03-03T16:53:58Z</time>
      </trkpt>
      <trkpt lat="43.4622" lon="1.63402">
        <ele>175</ele>
        <time>2018-03-03T16:54:14Z</time>
      </trkpt>
      <trkpt lat="43.46214" lon="1.63372">
        <ele>175</ele>
        <time>2018-03-03T16:54:30Z</time>
      </trkpt>
      <trkpt lat="43.46208" lon="1.6334">
        <ele>174</ele>
        <time>2018-03-03T16:54:48Z</time>
      </trkpt>
      <trkpt lat="43.46203" lon="1.63308">
        <ele>174</ele>
        <time>2018-03-03T16:55:05Z</time>
      </trkpt>
      <trkpt lat="43.46195" lon="1.63278">
        <ele>174</ele>
        <time>2018-03-03T16:55:20Z</time>
      </trkpt>
      <trkpt lat="43.46193" lon="1.63245">
        <ele>174</ele>
        <time>2018-03-03T16:55:38Z</time>
      </trkpt>
      <trkpt lat="43.46189" lon="1.63214">
        <ele>174</ele>
        <time>2018-03-03T16:55:52Z</time>
      </trkpt>
      <trkpt lat="43.46185" lon="1.63183">
        <ele>173</ele>
        <time>2018-03-03T16:56:10Z</time>
      </trkpt>
      <trkpt lat="43.46183" lon="1.63151">
        <ele>173</ele>
        <time>2018-03-03T16:56:25Z</time>
      </trkpt>
      <trkpt lat="43.46181" lon="1.6312">
        <ele>173</ele>
        <time>2018-03-03T16:56:42Z</time>
      </trkpt>
      <trkpt lat="43.46177" lon="1.63088">
        <ele>173</ele>
        <time>2018-03-03T16:56:57Z</time>
      </trkpt>
      <trkpt lat="43.46174" lon="1.63056">
        <ele>173</ele>
        <time>2018-03-03T16:57:15Z</time>
      </trkpt>
      <trkpt lat="43.46172" lon="1.63024">
        <ele>173</ele>
        <time>2018-03-03T16:57:34Z</time>
      </trkpt>
      <trkpt lat="43.46168" lon="1.62992">
        <ele>172</ele>
        <time>2018-03-03T16:57:52Z</time>
      </trkpt>
      <trkpt lat="43.46166" lon="1.6296">
        <ele>172</ele>
        <time>2018-03-03T16:58:09Z</time>
      </trkpt>
      <trkpt lat="43.46165" lon="1.62928">
        <ele>173</ele>
        <time>2018-03-03T16:58:25Z</time>
      </trkpt>
      <trkpt lat="43.46163" lon="1.62897">
        <ele>173</ele>
        <time>2018-03-03T16:58:41Z</time>
      </trkpt>
      <trkpt lat="43.4616" lon="1.62865">
        <ele>173</ele>
        <time>2018-03-03T16:58:59Z</time>
      </trkpt>
      <trkpt lat="43.46157" lon="1.62833">
        <ele>173</ele>
        <time>2018-03-03T16:59:15Z</time>
      </trkpt>
      <trkpt lat="43.4615" lon="1.62802">
        <ele>173</ele>
        <time>2018-03-03T16:59:32Z</time>
      </trkpt>
      <trkpt lat="43.46138" lon="1.62776">
        <ele>172</ele>
        <time>2018-03-03T16:59:48Z</time>
      </trkpt>
      <trkpt lat="43.46132" lon="1.62746">
        <ele>174</ele>
        <time>2018-03-03T17:00:06Z</time>
      </trkpt>
      <trkpt lat="43.46117" lon="1.62723">
        <ele>174</ele>
        <time>2018-03-03T17:00:22Z</time>
      </trkpt>
      <trkpt lat="43.46096" lon="1.62709">
        <ele>174</ele>
        <time>2018-03-03T17:00:41Z</time>
      </trkpt>
      <trkpt lat="43.46084" lon="1.62681">
        <ele>176</ele>
        <time>2018-03-03T17:00:57Z</time>
      </trkpt>
      <trkpt lat="43.4608" lon="1.62649">
        <ele>181</ele>
        <time>2018-03-03T17:01:16Z</time>
      </trkpt>
      <trkpt lat="43.46082" lon="1.62616">
        <ele>185</ele>
        <time>2018-03-03T17:01:37Z</time>
      </trkpt>
      <trkpt lat="43.46078" lon="1.62584">
        <ele>186</ele>
        <time>2018-03-03T17:01:55Z</time>
      </trkpt>
      <trkpt lat="43.4607" lon="1.62555">
        <ele>187</ele>
        <time>2018-03-03T17:02:12Z</time>
      </trkpt>
      <trkpt lat="43.46061" lon="1.62526">
        <ele>189</ele>
        <time>2018-03-03T17:02:33Z</time>
      </trkpt>
      <trkpt lat="43.4605" lon="1.62498">
        <ele>190</ele>
        <time>2018-03-03T17:02:52Z</time>
      </trkpt>
      <trkpt lat="43.46039" lon="1.6247">
        <ele>192</ele>
        <time>2018-03-03T17:03:09Z</time>
      </trkpt>
      <trkpt lat="43.4603" lon="1.62441">
        <ele>196</ele>
        <time>2018-03-03T17:03:30Z</time>
      </trkpt>
      <trkpt lat="43.46019" lon="1.62413">
        <ele>200</ele>
        <time>2018-03-03T17:03:49Z</time>
      </trkpt>
      <trkpt lat="43.46004" lon="1.62388">
        <ele>204</ele>
        <time>2018-03-03T17:04:09Z</time>
      </trkpt>
      <trkpt lat="43.45986" lon="1.62369">
        <ele>206</ele>
        <time>2018-03-03T17:04:27Z</time>
      </trkpt>
      <trkpt lat="43.45975" lon="1.62342">
        <ele>209</ele>
        <time>2018-03-03T17:04:45Z</time>
      </trkpt>
      <trkpt lat="43.45966" lon="1.62314">
        <ele>210</ele>
        <time>2018-03-03T17:04:58Z</time>
      </trkpt>
      <trkpt lat="43.45956" lon="1.62284">
        <ele>211</ele>
        <time>2018-03-03T17:05:14Z</time>
      </trkpt>
      <trkpt lat="43.45943" lon="1.6226">
        <ele>210</ele>
        <time>2018-03-03T17:06:01Z</time>
      </trkpt>
      <trkpt lat="43.45927" lon="1.62237">
        <ele>209</ele>
        <time>2018-03-03T17:06:19Z</time>
      </trkpt>
      <trkpt lat="43.4591" lon="1.62217">
        <ele>207</ele>
        <time>2018-03-03T17:06:33Z</time>
      </trkpt>
      <trkpt lat="43.45901" lon="1.62187">
        <ele>206</ele>
        <time>2018-03-03T17:06:49Z</time>
      </trkpt>
      <trkpt lat="43.45909" lon="1.62158">
        <ele>206</ele>
        <time>2018-03-03T17:07:06Z</time>
      </trkpt>
      <trkpt lat="43.45914" lon="1.62128">
        <ele>206</ele>
        <time>2018-03-03T17:07:24Z</time>
      </trkpt>
      <trkpt lat="43.45921" lon="1.62098">
        <ele>205</ele>
        <time>2018-03-03T17:07:41Z</time>
      </trkpt>
      <trkpt lat="43.45899" lon="1.62089">
        <ele>205</ele>
        <time>2018-03-03T17:08:12Z</time>
      </trkpt>
      <trkpt lat="43.45877" lon="1.62079">
        <ele>205</ele>
        <time>2018-03-03T17:08:30Z</time>
      </trkpt>
      <trkpt lat="43.45858" lon="1.6206">
        <ele>205</ele>
        <time>2018-03-03T17:08:46Z</time>
      </trkpt>
      <trkpt lat="43.45845" lon="1.62033">
        <ele>205</ele>
        <time>2018-03-03T17:09:03Z</time>
      </trkpt>
      <trkpt lat="43.45832" lon="1.62007">
        <ele>205</ele>
        <time>2018-03-03T17:09:20Z</time>
      </trkpt>
      <trkpt lat="43.45821" lon="1.6198">
        <ele>203</ele>
        <time>2018-03-03T17:09:38Z</time>
      </trkpt>
      <trkpt lat="43.45812" lon="1.61951">
        <ele>200</ele>
        <time>2018-03-03T17:09:57Z</time>
      </trkpt>
      <trkpt lat="43.45804" lon="1.61921">
        <ele>196</ele>
        <time>2018-03-03T17:10:15Z</time>
      </trkpt>
      <trkpt lat="43.45796" lon="1.61892">
        <ele>193</ele>
        <time>2018-03-03T17:10:32Z</time>
      </trkpt>
      <trkpt lat="43.45784" lon="1.61865">
        <ele>189</ele>
        <time>2018-03-03T17:10:47Z</time>
      </trkpt>
      <trkpt lat="43.45772" lon="1.61838">
        <ele>185</ele>
        <time>2018-03-03T17:11:02Z</time>
      </trkpt>
      <trkpt lat="43.45757" lon="1.61815">
        <ele>180</ele>
        <time>2018-03-03T17:11:21Z</time>
      </trkpt>
      <trkpt lat="43.4574" lon="1.61794">
        <ele>178</ele>
        <time>2018-03-03T17:11:41Z</time>
      </trkpt>
      <trkpt lat="43.45726" lon="1.61769">
        <ele>176</ele>
        <time>2018-03-03T17:11:58Z</time>
      </trkpt>
      <trkpt lat="43.4571" lon="1.61747">
        <ele>174</ele>
        <time>2018-03-03T17:12:14Z</time>
      </trkpt>
      <trkpt lat="43.45697" lon="1.61721">
        <ele>172</ele>
        <time>2018-03-03T17:12:28Z</time>
      </trkpt>
      <trkpt lat="43.45678" lon="1.61701">
        <ele>171</ele>
        <time>2018-03-03T17:12:54Z</time>
      </trkpt>
      <trkpt lat="43.45667" lon="1.61673">
        <ele>169</ele>
        <time>2018-03-03T17:13:24Z</time>
      </trkpt>
      <trkpt lat="43.4565" lon="1.61653">
        <ele>167</ele>
        <time>2018-03-03T17:13:40Z</time>
      </trkpt>
      <trkpt lat="43.45634" lon="1.6163">
        <ele>165</ele>
        <time>2018-03-03T17:14:01Z</time>
      </trkpt>
      <trkpt lat="43.4562" lon="1.61604">
        <ele>164</ele>
        <time>2018-03-03T17:14:21Z</time>
      </trkpt>
      <trkpt lat="43.45603" lon="1.61583">
        <ele>164</ele>
        <time>2018-03-03T17:14:39Z</time>
      </trkpt>
      <trkpt lat="43.45583" lon="1.61563">
        <ele>163</ele>
        <time>2018-03-03T17:14:50Z</time>
      </trkpt>
      <trkpt lat="43.45565" lon="1.61545">
        <ele>163</ele>
        <time>2018-03-03T17:15:10Z</time>
      </trkpt>
      <trkpt lat="43.45544" lon="1.61531">
        <ele>163</ele>
        <time>2018-03-03T17:15:27Z</time>
      </trkpt>
      <trkpt lat="43.45522" lon="1.61519">
        <ele>162</ele>
        <time>2018-03-03T17:15:44Z</time>
      </trkpt>
      <trkpt lat="43.455" lon="1.61508">
        <ele>162</ele>
        <time>2018-03-03T17:16:02Z</time>
      </trkpt>
      <trkpt lat="43.45477" lon="1.61503">
        <ele>162</ele>
        <time>2018-03-03T17:16:47Z</time>
      </trkpt>
      <trkpt lat="43.45456" lon="1.61492">
        <ele>160</ele>
        <time>2018-03-03T17:17:03Z</time>
      </trkpt>
      <trkpt lat="43.45432" lon="1.61488">
        <ele>159</ele>
        <time>2018-03-03T17:17:19Z</time>
      </trkpt>
      <trkpt lat="43.4541" lon="1.61488">
        <ele>159</ele>
        <time>2018-03-03T17:17:33Z</time>
      </trkpt>
      <trkpt lat="43.45393" lon="1.61466">
        <ele>159</ele>
        <time>2018-03-03T17:17:49Z</time>
      </trkpt>
      <trkpt lat="43.45403" lon="1.61436">
        <ele>158</ele>
        <time>2018-03-03T17:18:06Z</time>
      </trkpt>
      <trkpt lat="43.45402" lon="1.61404">
        <ele>158</ele>
        <time>2018-03-03T17:18:25Z</time>
      </trkpt>
      <trkpt lat="43.45403" lon="1.61374">
        <ele>158</ele>
        <time>2018-03-03T17:18:43Z</time>
      </trkpt>
    </trkseg>
  </trk>
</gpx>